KCRG/CRG METAR and TAF weather

Enter ICAO airport designator
Station Type Date Time Source
KCRG METAR 2020/01/19 02:53 UTC NOAA

KCRG 190253Z AUTO 19010KT 10SM CLR 19/14 A3020 RMK AO2 SLP224 T01890139 58006


Station Type Date Time Source
KCRG Decoded METAR 2020/01/19 02:53 UTC NOAA

JACKSONVILLE CRAIG MUN, FL, United States (KCRG) 30-20N 81-31W 13M
Jan 18, 2020 - 09:53 PM EST / 2020.01.19 0253 UTC
Wind: from the S (190 degrees) at 12 MPH (10 KT):0
Visibility: 10 mile(s):0
Sky conditions: clear
Temperature: 66.0 F (18.9 C)
Dew Point: 57.0 F (13.9 C)
Relative Humidity: 72%
Pressure (altimeter): 30.2 in. Hg (1022 hPa)
Pressure tendency: 0.02 inches (0.6 hPa) lower than three hours ago
ob: KCRG 190253Z AUTO 19010KT 10SM CLR 19/14 A3020 RMK AO2 SLP224 T01890139 58006
cycle: 3

Station Type Date Time Source
KCRG TAF 2020/01/18 18:22 UTC NOAA

TAF KCRG 181720Z 1818/1918 15012KT P6SM SCT045 BKN250
FM190200 19006KT P6SM BKN120
FM191000 20006KT P6SM VCSH SCT025 OVC060
TEMPO 1911/1915 5SM -SHRA BR OVC025
FM191500 22012KT P6SM VCSH BKN015 OVC100

Example: see airport list